createdAt,value
2023-03-27T00:00:12.925Z,2.90
2023-03-27T00:02:44.265Z,3.65
2023-03-27T00:05:13.414Z,2.80
2023-03-27T00:07:44.710Z,2.60
2023-03-27T00:10:13.345Z,2.75
2023-03-27T00:12:41.740Z,3.22
2023-03-27T00:15:15.840Z,2.80
2023-03-27T00:17:46.658Z,2.35
2023-03-27T00:20:15.702Z,3.40
2023-03-27T00:22:44.062Z,2.50
2023-03-27T00:25:12.946Z,2.80
2023-03-27T00:27:42.024Z,2.70
2023-03-27T00:30:11.160Z,2.20
2023-03-27T00:32:39.593Z,2.60
2023-03-27T00:35:10.450Z,2.10
2023-03-27T00:37:38.961Z,2.80
2023-03-27T00:40:09.280Z,2.90
2023-03-27T00:42:39.820Z,2.72
2023-03-27T00:45:10.302Z,2.72
2023-03-27T00:47:39.671Z,2.67
2023-03-27T00:50:11.653Z,2.47
2023-03-27T00:52:41.206Z,2.93
2023-03-27T00:55:14.123Z,2.63
2023-03-27T00:57:44.023Z,2.42
2023-03-27T01:00:17.166Z,2.50
2023-03-27T01:02:48.118Z,2.65
2023-03-27T01:05:18.659Z,2.20
2023-03-27T01:08:01.095Z,2.63
2023-03-27T01:10:36.158Z,2.78
2023-03-27T01:13:09.002Z,2.70
2023-03-27T01:15:41.438Z,2.60
2023-03-27T01:18:15.690Z,3.58
2023-03-27T01:21:03.781Z,2.70
2023-03-27T01:23:59.905Z,2.38
2023-03-27T01:26:42.259Z,3.10
2023-03-27T01:29:12.350Z,3.50
2023-03-27T01:31:51.886Z,3.38
2023-03-27T01:34:47.501Z,3.08
2023-03-27T01:37:35.660Z,3.65
2023-03-27T01:40:08.015Z,2.97
2023-03-27T01:42:38.558Z,2.90
2023-03-27T01:45:09.069Z,3.25
2023-03-27T01:47:44.376Z,2.88
2023-03-27T01:50:17.413Z,3.00
2023-03-27T01:52:48.409Z,3.20
2023-03-27T01:55:20.305Z,2.55
2023-03-27T01:57:53.618Z,2.90
2023-03-27T02:00:23.838Z,2.78
2023-03-27T02:03:09.180Z,2.95
2023-03-27T02:05:41.934Z,3.33
2023-03-27T02:08:13.606Z,2.85
2023-03-27T02:10:45.441Z,2.38
2023-03-27T02:13:21.413Z,3.20
2023-03-27T02:15:52.063Z,2.30
2023-03-27T02:18:24.092Z,2.47
2023-03-27T02:20:52.590Z,2.77
2023-03-27T02:23:22.848Z,2.78
2023-03-27T02:25:54.336Z,2.38
2023-03-27T02:28:30.111Z,2.60
2023-03-27T02:31:31.680Z,2.50
2023-03-27T02:34:03.175Z,2.20
2023-03-27T02:36:37.556Z,2.47
2023-03-27T02:39:08.990Z,2.20
2023-03-27T02:41:41.049Z,2.17
2023-03-27T02:44:31.860Z,2.25
2023-03-27T02:47:07.375Z,2.30
2023-03-27T02:49:38.657Z,2.78
2023-03-27T02:52:09.649Z,2.90
2023-03-27T02:54:40.493Z,2.85
2023-03-27T02:57:12.478Z,2.08
2023-03-27T03:00:06.248Z,2.47
2023-03-27T03:02:40.711Z,1.98
2023-03-27T03:05:12.669Z,2.35
2023-03-27T03:07:41.620Z,2.65
2023-03-27T03:10:12.581Z,2.53
2023-03-27T03:12:42.527Z,2.38
2023-03-27T03:15:11.669Z,1.95
2023-03-27T03:17:40.621Z,1.77
2023-03-27T03:20:10.516Z,1.73
2023-03-27T03:22:39.955Z,1.75
2023-03-27T03:25:10.588Z,1.92
2023-03-27T03:27:41.311Z,1.75
2023-03-27T03:30:16.918Z,1.60
2023-03-27T03:32:58.213Z,1.90
2023-03-27T03:35:27.812Z,2.15
2023-03-27T03:37:59.374Z,1.90
2023-03-27T03:40:28.723Z,1.90
2023-03-27T03:42:59.693Z,2.45
2023-03-27T03:45:32.144Z,1.83
2023-03-27T03:48:01.750Z,1.90
2023-03-27T03:50:30.362Z,2.00
2023-03-27T03:52:58.918Z,1.60
2023-03-27T03:55:27.521Z,2.08
2023-03-27T03:57:55.959Z,1.80
2023-03-27T04:00:28.341Z,1.85
2023-03-27T04:03:00.688Z,2.20
2023-03-27T04:05:29.225Z,1.83
2023-03-27T04:08:00.360Z,2.03
2023-03-27T04:10:47.101Z,2.10
2023-03-27T04:13:25.068Z,2.40
2023-03-27T04:16:02.747Z,2.22
2023-03-27T04:18:41.148Z,1.88
2023-03-27T04:21:15.256Z,2.20
2023-03-27T04:23:45.146Z,2.00
2023-03-27T04:26:16.477Z,2.10
2023-03-27T04:29:10.289Z,2.50
2023-03-27T04:31:59.104Z,2.22
2023-03-27T04:34:43.993Z,2.38
2023-03-27T04:37:47.890Z,2.33
2023-03-27T04:40:31.682Z,2.90
2023-03-27T04:43:01.151Z,3.00
2023-03-27T04:45:29.978Z,2.80
2023-03-27T04:47:58.489Z,2.45
2023-03-27T04:50:28.398Z,1.95
2023-03-27T04:53:02.161Z,2.05
2023-03-27T04:55:38.687Z,2.00
2023-03-27T04:58:08.034Z,2.58
2023-03-27T05:00:38.560Z,2.20
2023-03-27T05:03:25.945Z,2.15
2023-03-27T05:06:11.921Z,2.30
2023-03-27T05:08:42.394Z,2.05
2023-03-27T05:11:19.859Z,2.60
2023-03-27T05:13:48.199Z,2.22
2023-03-27T05:16:18.905Z,2.38
2023-03-27T05:21:21.385Z,2.50
2023-03-27T05:23:53.051Z,3.30
2023-03-27T05:26:25.736Z,2.97
2023-03-27T05:28:59.716Z,3.05
2023-03-27T05:31:30.238Z,3.05
2023-03-27T05:34:27.853Z,2.85
2023-03-27T05:37:05.660Z,3.65
2023-03-27T05:39:37.892Z,2.83
2023-03-27T05:42:10.391Z,2.78
2023-03-27T05:44:39.526Z,3.20
2023-03-27T05:47:10.214Z,3.13
2023-03-27T05:49:39.091Z,3.30
2023-03-27T05:52:15.978Z,3.00
2023-03-27T05:54:44.616Z,4.47
2023-03-27T05:57:13.150Z,4.00
2023-03-27T05:59:42.441Z,2.78
2023-03-27T06:02:21.330Z,3.03
2023-03-27T06:05:01.250Z,2.88
2023-03-27T06:07:39.083Z,3.00
2023-03-27T06:10:13.732Z,3.10
2023-03-27T06:12:48.872Z,3.55
2023-03-27T06:15:34.121Z,4.55
2023-03-27T06:18:23.229Z,5.55
2023-03-27T06:20:51.763Z,3.15
2023-03-27T06:23:21.981Z,2.50
2023-03-27T06:25:51.226Z,2.40
2023-03-27T06:28:21.080Z,2.05
2023-03-27T06:30:51.052Z,2.45
2023-03-27T06:33:27.596Z,2.80
2023-03-27T06:36:00.988Z,2.70
2023-03-27T06:38:37.272Z,2.50
2023-03-27T06:41:07.242Z,2.42
2023-03-27T06:43:54.354Z,2.53
2023-03-27T06:46:45.004Z,2.97
2023-03-27T06:49:34.679Z,2.40
2023-03-27T06:52:11.031Z,2.85
2023-03-27T06:54:56.844Z,3.05
2023-03-27T06:57:25.887Z,2.70
2023-03-27T07:00:00.265Z,2.90
2023-03-27T07:02:50.050Z,2.85
2023-03-27T07:05:38.965Z,3.08
2023-03-27T07:08:21.188Z,3.30
2023-03-27T07:11:07.388Z,7.38
2023-03-27T07:13:42.687Z,2.92
2023-03-27T07:16:20.862Z,2.90
2023-03-27T07:18:49.749Z,2.75
2023-03-27T07:21:18.229Z,3.88
2023-03-27T07:23:46.901Z,2.67
2023-03-27T07:29:04.144Z,2.70
2023-03-27T07:31:54.764Z,2.55
2023-03-27T07:34:27.593Z,2.80
2023-03-27T07:37:28.108Z,2.67
2023-03-27T07:40:36.971Z,2.20
2023-03-27T07:43:30.854Z,2.58
2023-03-27T07:46:02.970Z,2.53
2023-03-27T07:48:32.322Z,2.65
2023-03-27T07:51:13.353Z,2.40
2023-03-27T07:53:43.566Z,2.75
2023-03-27T07:56:23.399Z,2.65
2023-03-27T07:59:06.899Z,2.78
2023-03-27T08:01:36.944Z,2.90
2023-03-27T08:04:05.719Z,2.60
2023-03-27T08:06:36.033Z,2.60
2023-03-27T08:09:06.348Z,2.30
2023-03-27T08:11:36.409Z,2.58
2023-03-27T08:14:05.054Z,1.98
2023-03-27T08:16:33.682Z,2.30
2023-03-27T08:19:04.454Z,2.20
2023-03-27T08:21:33.263Z,2.10
2023-03-27T08:24:04.657Z,2.50
2023-03-27T08:26:36.210Z,2.95
2023-03-27T08:31:39.384Z,2.00
2023-03-27T08:34:10.395Z,2.55
2023-03-27T08:36:45.181Z,3.33
2023-03-27T08:39:14.639Z,2.60
2023-03-27T08:42:04.811Z,2.38
2023-03-27T08:44:36.010Z,2.50
2023-03-27T08:47:13.753Z,2.03
2023-03-27T08:49:52.840Z,2.38
2023-03-27T08:52:26.448Z,2.33
2023-03-27T08:54:59.926Z,2.58
2023-03-27T08:57:37.480Z,3.17
2023-03-27T09:00:16.723Z,2.60
2023-03-27T09:02:50.455Z,1.80
2023-03-27T09:05:22.170Z,1.98
2023-03-27T09:07:56.944Z,2.13
2023-03-27T09:10:36.212Z,2.13
2023-03-27T09:13:16.878Z,3.25
2023-03-27T09:15:49.450Z,2.95
2023-03-27T09:18:21.391Z,2.85
2023-03-27T09:20:56.306Z,3.13
2023-03-27T09:23:30.273Z,2.88
2023-03-27T09:26:18.944Z,2.60
2023-03-27T09:29:07.173Z,3.08
2023-03-27T09:31:46.935Z,2.40
2023-03-27T09:34:17.220Z,2.20
2023-03-27T09:36:48.224Z,3.45
2023-03-27T09:39:21.798Z,3.47
2023-03-27T09:41:55.502Z,2.08
2023-03-27T09:44:26.265Z,3.60
2023-03-27T09:47:00.642Z,2.22
2023-03-27T09:49:31.833Z,3.83
2023-03-27T09:52:19.577Z,1.65
2023-03-27T09:55:23.988Z,2.40
2023-03-27T09:57:58.476Z,2.70
2023-03-27T10:00:29.209Z,2.67
2023-03-27T10:03:03.725Z,2.13
2023-03-27T10:05:32.626Z,2.00
2023-03-27T10:08:02.994Z,1.60
2023-03-27T10:10:46.394Z,2.55
2023-03-27T10:13:27.176Z,1.58
2023-03-27T10:16:00.402Z,1.65
2023-03-27T10:18:36.522Z,1.63
2023-03-27T10:21:11.753Z,2.30
2023-03-27T10:23:44.276Z,1.40
2023-03-27T10:26:22.401Z,2.13
2023-03-27T10:28:52.592Z,1.75
2023-03-27T10:31:32.954Z,1.67
2023-03-27T10:34:33.532Z,1.58
2023-03-27T10:37:03.264Z,1.95
2023-03-27T10:39:35.807Z,1.65
2023-03-27T10:42:28.150Z,1.95
2023-03-27T10:44:57.603Z,1.50
2023-03-27T10:47:31.762Z,1.90
2023-03-27T10:50:05.046Z,1.48
2023-03-27T10:52:45.788Z,1.73
2023-03-27T10:55:24.744Z,1.80
2023-03-27T10:57:56.193Z,1.52
2023-03-27T11:00:34.538Z,1.90
2023-03-27T11:03:08.568Z,2.08
2023-03-27T11:05:39.298Z,1.83
2023-03-27T11:08:17.703Z,2.20
2023-03-27T11:10:49.528Z,1.75
2023-03-27T11:13:28.253Z,2.13
2023-03-27T11:16:05.143Z,2.05
2023-03-27T11:19:17.285Z,2.10
2023-03-27T11:22:07.981Z,1.60
2023-03-27T11:24:42.814Z,1.40
2023-03-27T11:27:17.041Z,1.63
2023-03-27T11:32:17.539Z,1.40
2023-03-27T11:34:57.508Z,1.50
2023-03-27T11:37:54.139Z,1.48
2023-03-27T11:40:26.963Z,1.60
2023-03-27T11:43:03.189Z,1.90
2023-03-27T11:45:35.747Z,2.40
2023-03-27T11:48:11.613Z,1.80
2023-03-27T11:50:50.461Z,1.50
2023-03-27T11:53:35.469Z,1.42
2023-03-27T11:56:39.219Z,1.90
2023-03-27T11:59:37.928Z,2.22
2023-03-27T12:02:14.979Z,2.05
2023-03-27T12:04:46.874Z,1.63
2023-03-27T12:07:36.123Z,3.10
2023-03-27T12:10:15.173Z,1.92
2023-03-27T12:13:19.043Z,2.70
2023-03-27T12:16:01.173Z,2.50
2023-03-27T12:18:59.466Z,2.72
2023-03-27T12:21:37.733Z,2.03
2023-03-27T12:24:30.080Z,1.77
2023-03-27T12:27:28.911Z,2.17
2023-03-27T12:30:07.628Z,1.38
2023-03-27T12:32:47.940Z,2.42
2023-03-27T12:35:21.595Z,3.10
2023-03-27T12:37:57.885Z,2.45
2023-03-27T12:40:28.296Z,2.60
2023-03-27T12:43:09.112Z,1.65
2023-03-27T12:45:50.939Z,2.17
2023-03-27T12:48:22.499Z,1.38
2023-03-27T12:51:00.356Z,1.52
2023-03-27T12:53:46.606Z,2.20
2023-03-27T12:56:24.578Z,1.67
2023-03-27T12:58:54.622Z,1.63
2023-03-27T13:02:00.373Z,1.60
2023-03-27T13:04:41.376Z,1.70
2023-03-27T13:07:19.205Z,1.80
2023-03-27T13:10:18.297Z,1.88
2023-03-27T13:13:05.807Z,1.85
2023-03-27T13:15:54.382Z,1.40
2023-03-27T13:18:48.787Z,2.92
2023-03-27T13:21:23.500Z,2.72
2023-03-27T13:24:08.709Z,3.45
2023-03-27T13:26:47.007Z,3.22
2023-03-27T13:29:17.730Z,1.85
2023-03-27T13:32:02.368Z,1.80
2023-03-27T13:34:42.765Z,2.20
2023-03-27T13:37:38.023Z,2.17
2023-03-27T13:40:20.421Z,2.53
2023-03-27T13:42:52.303Z,2.38
2023-03-27T13:45:23.884Z,2.00
2023-03-27T13:48:24.919Z,1.92
2023-03-27T13:51:30.123Z,2.20
2023-03-27T13:54:18.823Z,1.88
2023-03-27T13:56:59.670Z,2.17
2023-03-27T13:59:45.223Z,3.28
2023-03-27T14:02:32.899Z,2.30
2023-03-27T14:05:22.649Z,1.83
2023-03-27T14:08:07.778Z,1.58
2023-03-27T14:11:14.693Z,2.83
2023-03-27T14:13:51.148Z,1.90
2023-03-27T14:16:31.510Z,1.88
2023-03-27T14:19:22.926Z,2.17
2023-03-27T14:21:53.535Z,2.70
2023-03-27T14:24:30.385Z,2.20
2023-03-27T14:27:12.001Z,2.30
2023-03-27T14:29:42.194Z,2.10
2023-03-27T14:32:15.104Z,3.05
2023-03-27T14:34:54.496Z,11.15
2023-03-27T14:37:39.169Z,2.78
2023-03-27T14:40:32.782Z,2.57
2023-03-27T14:43:07.192Z,3.30
2023-03-27T14:45:41.001Z,2.60
2023-03-27T14:48:15.303Z,2.25
2023-03-27T14:50:47.803Z,4.15
2023-03-27T14:53:21.900Z,3.30
2023-03-27T14:56:18.431Z,3.70
2023-03-27T14:59:24.415Z,4.47
2023-03-27T15:02:03.418Z,4.40
2023-03-27T15:04:32.805Z,4.40
2023-03-27T15:07:14.270Z,2.95
2023-03-27T15:13:10.863Z,3.03
2023-03-27T15:15:46.941Z,2.45
2023-03-27T15:18:22.494Z,2.90
2023-03-27T15:20:51.498Z,2.00
2023-03-27T15:23:22.380Z,2.25
2023-03-27T15:25:55.951Z,3.63
2023-03-27T15:28:27.930Z,4.25
2023-03-27T15:30:57.979Z,3.08
2023-03-27T15:33:34.598Z,3.00
2023-03-27T15:36:07.458Z,2.92
2023-03-27T15:38:37.438Z,2.38
2023-03-27T15:41:20.693Z,3.33
2023-03-27T15:43:49.115Z,3.63
2023-03-27T15:46:26.991Z,5.57
2023-03-27T15:48:57.246Z,3.42
2023-03-27T15:51:32.410Z,3.30
2023-03-27T15:54:00.790Z,3.60
2023-03-27T15:56:30.563Z,4.05
2023-03-27T15:59:00.245Z,4.90
2023-03-27T16:01:30.230Z,4.57
2023-03-27T16:04:04.068Z,3.63
2023-03-27T16:06:36.464Z,3.70
2023-03-27T16:09:05.987Z,4.25
2023-03-27T16:11:42.328Z,2.97
2023-03-27T16:14:34.706Z,2.80
2023-03-27T16:17:19.563Z,3.13
2023-03-27T16:19:53.506Z,3.00
2023-03-27T16:22:23.577Z,3.20
2023-03-27T16:24:52.127Z,4.43
2023-03-27T16:27:22.890Z,3.28
2023-03-27T16:29:51.527Z,3.55
2023-03-27T16:32:20.477Z,3.53
2023-03-27T16:34:51.353Z,3.75
2023-03-27T16:37:22.049Z,3.67
2023-03-27T16:39:50.875Z,4.10
2023-03-27T16:42:25.820Z,6.32
2023-03-27T16:44:54.970Z,5.55
2023-03-27T16:47:24.703Z,6.57
2023-03-27T16:50:07.900Z,4.75
2023-03-27T16:52:40.873Z,5.15
2023-03-27T16:55:11.576Z,4.38
2023-03-27T16:57:40.629Z,4.25
2023-03-27T17:00:10.975Z,4.95
2023-03-27T17:02:39.852Z,4.05
2023-03-27T17:05:09.616Z,4.00
2023-03-27T17:07:42.446Z,4.37
2023-03-27T17:10:11.440Z,3.38
2023-03-27T17:12:39.859Z,4.00
2023-03-27T17:15:13.368Z,3.53
2023-03-27T17:17:41.971Z,3.53
2023-03-27T17:20:22.842Z,4.30
2023-03-27T17:22:52.671Z,4.10
2023-03-27T17:25:21.165Z,6.75
2023-03-27T17:27:49.683Z,6.15
2023-03-27T17:30:30.480Z,4.80
2023-03-27T17:32:59.325Z,4.13
2023-03-27T17:35:28.047Z,5.55
2023-03-27T17:37:58.034Z,4.40
2023-03-27T17:40:26.609Z,4.22
2023-03-27T17:42:55.533Z,3.80
2023-03-27T17:45:24.658Z,2.83
2023-03-27T17:47:53.141Z,3.60
2023-03-27T17:50:21.757Z,3.00
2023-03-27T17:52:50.792Z,3.17
2023-03-27T17:55:20.930Z,3.70
2023-03-27T17:57:55.817Z,3.40
2023-03-27T18:00:35.452Z,4.30
2023-03-27T18:03:04.188Z,5.40
2023-03-27T18:05:32.901Z,7.85
2023-03-27T18:08:01.319Z,9.25
2023-03-27T18:10:31.564Z,11.30
2023-03-27T18:13:00.997Z,11.13
2023-03-27T18:15:29.502Z,12.65
2023-03-27T18:17:59.465Z,9.77
2023-03-27T18:20:27.967Z,6.60
2023-03-27T18:22:58.517Z,6.13
2023-03-27T18:25:27.323Z,4.88
2023-03-27T18:27:57.208Z,4.70
2023-03-27T18:30:25.904Z,4.40
2023-03-27T18:32:54.424Z,4.63
2023-03-27T18:35:22.966Z,4.35
2023-03-27T18:37:51.317Z,4.32
2023-03-27T18:40:20.006Z,8.25
2023-03-27T18:42:48.767Z,3.75
2023-03-27T18:45:18.733Z,3.50
2023-03-27T18:47:47.208Z,2.85
2023-03-27T18:50:16.745Z,4.10
2023-03-27T18:52:45.952Z,5.40
2023-03-27T18:55:15.031Z,5.00
2023-03-27T18:57:46.599Z,5.85
2023-03-27T19:00:18.498Z,4.28
2023-03-27T19:02:49.626Z,3.23
2023-03-27T19:05:18.807Z,3.47
2023-03-27T19:07:51.177Z,6.80
2023-03-27T19:10:22.613Z,7.45
2023-03-27T19:13:12.941Z,6.97
2023-03-27T19:16:14.067Z,4.30
2023-03-27T19:19:03.890Z,2.42
2023-03-27T19:21:44.993Z,3.58
2023-03-27T19:24:36.810Z,7.05
2023-03-27T19:27:05.701Z,4.30
2023-03-27T19:29:34.223Z,3.45
2023-03-27T19:32:03.163Z,4.05
2023-03-27T19:34:42.019Z,2.40
2023-03-27T19:37:15.818Z,3.55
2023-03-27T19:39:44.244Z,2.60
2023-03-27T19:42:12.661Z,2.40
2023-03-27T19:44:42.202Z,2.40
2023-03-27T19:47:13.119Z,2.30
2023-03-27T19:49:42.958Z,2.10
2023-03-27T19:52:34.860Z,2.47
2023-03-27T19:55:10.191Z,2.40
2023-03-27T19:57:40.205Z,2.60
2023-03-27T20:00:13.032Z,2.10
2023-03-27T20:02:48.601Z,2.20
2023-03-27T20:07:48.728Z,2.33
2023-03-27T20:10:18.564Z,2.20
2023-03-27T20:12:49.002Z,2.17
2023-03-27T20:15:17.942Z,2.45
2023-03-27T20:17:47.620Z,2.67
2023-03-27T20:20:16.585Z,3.67
2023-03-27T20:22:56.994Z,3.00
2023-03-27T20:25:33.832Z,3.10
2023-03-27T20:28:06.776Z,3.28
2023-03-27T20:30:38.116Z,3.22
2023-03-27T20:33:11.966Z,3.60
2023-03-27T20:35:42.611Z,2.40
2023-03-27T20:38:13.244Z,3.40
2023-03-27T20:40:53.120Z,2.03
2023-03-27T20:43:27.821Z,2.20
2023-03-27T20:46:06.169Z,2.33
2023-03-27T20:48:41.626Z,2.08
2023-03-27T20:51:14.543Z,2.20
2023-03-27T20:53:43.902Z,2.22
2023-03-27T20:56:20.281Z,2.22
2023-03-27T20:58:48.775Z,2.10
2023-03-27T21:01:20.850Z,3.13
2023-03-27T21:03:49.932Z,3.00
2023-03-27T21:06:22.953Z,2.55
2023-03-27T21:09:00.828Z,2.03
2023-03-27T21:11:35.643Z,3.47
2023-03-27T21:14:04.447Z,3.08
2023-03-27T21:16:36.313Z,3.30
2023-03-27T21:19:04.959Z,2.90
2023-03-27T21:21:38.103Z,2.42
2023-03-27T21:24:07.249Z,2.42
2023-03-27T21:26:37.268Z,2.45
2023-03-27T21:29:08.900Z,2.13
2023-03-27T21:31:41.575Z,1.92
2023-03-27T21:36:45.101Z,2.38
2023-03-27T21:39:13.592Z,2.92
2023-03-27T21:41:44.235Z,5.38
2023-03-27T21:44:13.368Z,3.67
2023-03-27T21:46:44.668Z,3.20
2023-03-27T21:49:16.653Z,3.08
2023-03-27T21:51:51.469Z,3.38
2023-03-27T21:54:20.250Z,3.25
2023-03-27T21:56:49.993Z,2.67
2023-03-27T21:59:18.653Z,2.95
2023-03-27T22:01:49.860Z,2.53
2023-03-27T22:04:20.485Z,2.53
2023-03-27T22:06:55.309Z,3.15
2023-03-27T22:09:26.521Z,2.47
2023-03-27T22:11:57.348Z,3.03
2023-03-27T22:14:28.680Z,2.92
2023-03-27T22:16:57.867Z,2.60
2023-03-27T22:19:29.818Z,2.50
2023-03-27T22:22:01.935Z,2.78
2023-03-27T22:24:32.778Z,3.22
2023-03-27T22:27:08.671Z,2.67
2023-03-27T22:29:37.434Z,3.45
2023-03-27T22:32:09.164Z,4.07
2023-03-27T22:34:37.728Z,3.30
2023-03-27T22:37:08.766Z,3.95
2023-03-27T22:39:37.647Z,4.20
2023-03-27T22:42:08.106Z,4.30
2023-03-27T22:44:38.199Z,2.40
2023-03-27T22:47:06.750Z,2.38
2023-03-27T22:49:36.116Z,2.25
2023-03-27T22:52:04.494Z,2.63
2023-03-27T22:54:32.977Z,2.60
2023-03-27T22:57:01.487Z,2.40
2023-03-27T22:59:31.461Z,1.83
2023-03-27T23:01:59.995Z,2.47
2023-03-27T23:04:29.786Z,2.08
2023-03-27T23:07:02.144Z,2.60
2023-03-27T23:09:30.915Z,2.40
2023-03-27T23:11:59.315Z,2.97
2023-03-27T23:14:27.676Z,2.90
2023-03-27T23:16:57.531Z,2.92
2023-03-27T23:19:25.950Z,2.47
2023-03-27T23:21:54.333Z,2.00
2023-03-27T23:24:22.925Z,2.20
2023-03-27T23:26:51.503Z,1.58
2023-03-27T23:29:19.927Z,1.77
2023-03-27T23:31:48.784Z,1.67
2023-03-27T23:34:18.656Z,1.70
2023-03-27T23:36:59.253Z,2.10
2023-03-27T23:39:33.026Z,2.97
2023-03-27T23:42:05.907Z,2.17
2023-03-27T23:44:35.224Z,1.58
2023-03-27T23:47:03.670Z,2.33
2023-03-27T23:49:33.482Z,1.85
2023-03-27T23:52:01.872Z,1.63
2023-03-27T23:54:30.245Z,1.70
2023-03-27T23:56:59.754Z,1.50
2023-03-27T23:59:28.448Z,1.10
